sensor_id;sensor_type;location;lat;lon;timestamp;P1;durP1;ratioP1;P2;durP2;ratioP2
62863;SDS011;48954;59.950;11.014;2022-10-29T00:02:24;9.00;;;5.30;;
62863;SDS011;48954;59.950;11.014;2022-10-29T00:04:50;8.80;;;5.50;;
62863;SDS011;48954;59.950;11.014;2022-10-29T00:07:16;8.10;;;5.00;;
62863;SDS011;48954;59.950;11.014;2022-10-29T00:09:41;6.40;;;4.10;;
62863;SDS011;48954;59.950;11.014;2022-10-29T00:12:07;7.70;;;4.50;;
62863;SDS011;48954;59.950;11.014;2022-10-29T00:14:33;9.10;;;4.20;;
62863;SDS011;48954;59.950;11.014;2022-10-29T00:16:59;7.20;;;4.10;;
62863;SDS011;48954;59.950;11.014;2022-10-29T00:19:24;6.30;;;4.20;;
62863;SDS011;48954;59.950;11.014;2022-10-29T00:21:50;9.80;;;4.30;;
62863;SDS011;48954;59.950;11.014;2022-10-29T00:24:16;7.30;;;4.00;;
62863;SDS011;48954;59.950;11.014;2022-10-29T00:26:42;7.40;;;4.20;;
62863;SDS011;48954;59.950;11.014;2022-10-29T00:29:09;6.80;;;3.90;;
62863;SDS011;48954;59.950;11.014;2022-10-29T00:31:35;7.70;;;3.80;;
62863;SDS011;48954;59.950;11.014;2022-10-29T00:34:00;8.90;;;4.20;;
62863;SDS011;48954;59.950;11.014;2022-10-29T00:36:27;7.10;;;4.20;;
62863;SDS011;48954;59.950;11.014;2022-10-29T00:38:54;6.90;;;4.10;;
62863;SDS011;48954;59.950;11.014;2022-10-29T00:41:21;5.20;;;3.60;;
62863;SDS011;48954;59.950;11.014;2022-10-29T00:43:50;9.30;;;4.10;;
62863;SDS011;48954;59.950;11.014;2022-10-29T00:46:36;9.20;;;4.10;;
62863;SDS011;48954;59.950;11.014;2022-10-29T00:49:02;9.00;;;4.80;;
62863;SDS011;48954;59.950;11.014;2022-10-29T00:51:28;10.20;;;4.60;;
62863;SDS011;48954;59.950;11.014;2022-10-29T00:53:57;8.30;;;4.30;;
62863;SDS011;48954;59.950;11.014;2022-10-29T00:56:28;7.30;;;4.20;;
62863;SDS011;48954;59.950;11.014;2022-10-29T00:58:58;8.60;;;4.30;;
62863;SDS011;48954;59.950;11.014;2022-10-29T01:01:24;8.60;;;4.20;;
62863;SDS011;48954;59.950;11.014;2022-10-29T01:03:50;7.50;;;4.50;;
62863;SDS011;48954;59.950;11.014;2022-10-29T01:06:17;7.90;;;3.70;;
62863;SDS011;48954;59.950;11.014;2022-10-29T01:08:43;8.00;;;3.70;;
62863;SDS011;48954;59.950;11.014;2022-10-29T01:22:40;4.60;;;3.10;;
62863;SDS011;48954;59.950;11.014;2022-10-29T01:27:57;4.90;;;3.60;;
62863;SDS011;48954;59.950;11.014;2022-10-29T01:30:55;5.50;;;3.30;;
62863;SDS011;48954;59.950;11.014;2022-10-29T01:33:35;5.60;;;3.20;;
62863;SDS011;48954;59.950;11.014;2022-10-29T01:36:15;5.30;;;3.50;;
62863;SDS011;48954;59.950;11.014;2022-10-29T01:42:13;6.90;;;3.40;;
62863;SDS011;48954;59.950;11.014;2022-10-29T01:47:17;5.60;;;3.00;;
62863;SDS011;48954;59.950;11.014;2022-10-29T01:49:45;7.00;;;3.20;;
62863;SDS011;48954;59.950;11.014;2022-10-29T01:52:14;4.80;;;2.90;;
62863;SDS011;48954;59.950;11.014;2022-10-29T01:54:44;5.80;;;3.10;;
62863;SDS011;48954;59.950;11.014;2022-10-29T01:59:49;6.10;;;2.90;;
62863;SDS011;48954;59.950;11.014;2022-10-29T02:13:04;7.00;;;2.70;;
62863;SDS011;48954;59.950;11.014;2022-10-29T02:15:35;3.70;;;2.30;;
62863;SDS011;48954;59.950;11.014;2022-10-29T02:18:07;3.80;;;2.20;;
62863;SDS011;48954;59.950;11.014;2022-10-29T02:20:33;4.90;;;2.30;;
62863;SDS011;48954;59.950;11.014;2022-10-29T02:23:00;3.80;;;1.90;;
62863;SDS011;48954;59.950;11.014;2022-10-29T02:25:26;5.80;;;2.30;;
62863;SDS011;48954;59.950;11.014;2022-10-29T02:27:52;5.40;;;2.10;;
62863;SDS011;48954;59.950;11.014;2022-10-29T02:30:18;4.10;;;1.90;;
62863;SDS011;48954;59.950;11.014;2022-10-29T02:32:43;4.40;;;2.60;;
62863;SDS011;48954;59.950;11.014;2022-10-29T02:35:09;4.30;;;1.80;;
62863;SDS011;48954;59.950;11.014;2022-10-29T02:37:35;6.60;;;1.70;;
62863;SDS011;48954;59.950;11.014;2022-10-29T02:40:02;5.40;;;1.80;;
62863;SDS011;48954;59.950;11.014;2022-10-29T02:42:28;4.20;;;2.00;;
62863;SDS011;48954;59.950;11.014;2022-10-29T02:44:53;3.40;;;1.70;;
62863;SDS011;48954;59.950;11.014;2022-10-29T02:47:19;5.40;;;2.00;;
62863;SDS011;48954;59.950;11.014;2022-10-29T02:49:45;7.50;;;1.80;;
62863;SDS011;48954;59.950;11.014;2022-10-29T02:52:11;5.00;;;1.50;;
62863;SDS011;48954;59.950;11.014;2022-10-29T02:54:37;4.70;;;1.50;;
62863;SDS011;48954;59.950;11.014;2022-10-29T02:57:02;4.20;;;1.70;;
62863;SDS011;48954;59.950;11.014;2022-10-29T02:59:28;2.20;;;1.40;;
62863;SDS011;48954;59.950;11.014;2022-10-29T03:01:54;4.90;;;1.40;;
62863;SDS011;48954;59.950;11.014;2022-10-29T03:04:20;3.60;;;1.50;;
62863;SDS011;48954;59.950;11.014;2022-10-29T03:06:46;3.60;;;1.40;;
62863;SDS011;48954;59.950;11.014;2022-10-29T03:09:11;5.00;;;1.20;;
62863;SDS011;48954;59.950;11.014;2022-10-29T03:11:37;2.30;;;1.20;;
62863;SDS011;48954;59.950;11.014;2022-10-29T03:14:03;3.10;;;1.30;;
62863;SDS011;48954;59.950;11.014;2022-10-29T03:16:29;2.80;;;1.30;;
62863;SDS011;48954;59.950;11.014;2022-10-29T03:18:54;2.90;;;0.90;;
62863;SDS011;48954;59.950;11.014;2022-10-29T03:21:20;3.90;;;1.10;;
62863;SDS011;48954;59.950;11.014;2022-10-29T03:23:46;2.10;;;1.00;;
62863;SDS011;48954;59.950;11.014;2022-10-29T03:26:12;2.60;;;1.10;;
62863;SDS011;48954;59.950;11.014;2022-10-29T03:28:37;2.30;;;0.90;;
62863;SDS011;48954;59.950;11.014;2022-10-29T03:31:03;2.50;;;0.90;;
62863;SDS011;48954;59.950;11.014;2022-10-29T03:33:29;2.20;;;1.20;;
62863;SDS011;48954;59.950;11.014;2022-10-29T03:35:59;2.60;;;1.00;;
62863;SDS011;48954;59.950;11.014;2022-10-29T03:38:26;1.50;;;0.90;;
62863;SDS011;48954;59.950;11.014;2022-10-29T03:40:52;2.70;;;0.90;;
62863;SDS011;48954;59.950;11.014;2022-10-29T03:43:18;2.80;;;1.20;;
62863;SDS011;48954;59.950;11.014;2022-10-29T03:45:48;3.90;;;0.90;;
62863;SDS011;48954;59.950;11.014;2022-10-29T03:48:15;1.60;;;0.80;;
62863;SDS011;48954;59.950;11.014;2022-10-29T03:50:41;2.80;;;0.90;;
62863;SDS011;48954;59.950;11.014;2022-10-29T03:53:07;2.40;;;0.80;;
62863;SDS011;48954;59.950;11.014;2022-10-29T03:55:33;1.60;;;0.90;;
62863;SDS011;48954;59.950;11.014;2022-10-29T03:57:59;2.00;;;0.90;;
62863;SDS011;48954;59.950;11.014;2022-10-29T04:00:24;2.50;;;1.30;;
62863;SDS011;48954;59.950;11.014;2022-10-29T04:02:50;1.00;;;0.60;;
62863;SDS011;48954;59.950;11.014;2022-10-29T04:05:16;2.60;;;0.80;;
62863;SDS011;48954;59.950;11.014;2022-10-29T04:07:43;4.40;;;0.90;;
62863;SDS011;48954;59.950;11.014;2022-10-29T04:10:09;2.80;;;0.70;;
62863;SDS011;48954;59.950;11.014;2022-10-29T04:12:35;1.30;;;0.60;;
62863;SDS011;48954;59.950;11.014;2022-10-29T04:15:01;1.60;;;0.80;;
62863;SDS011;48954;59.950;11.014;2022-10-29T04:17:26;2.00;;;0.70;;
62863;SDS011;48954;59.950;11.014;2022-10-29T04:19:52;2.20;;;0.80;;
62863;SDS011;48954;59.950;11.014;2022-10-29T04:22:18;2.00;;;1.00;;
62863;SDS011;48954;59.950;11.014;2022-10-29T04:24:44;2.00;;;0.80;;
62863;SDS011;48954;59.950;11.014;2022-10-29T04:27:10;4.50;;;0.80;;
62863;SDS011;48954;59.950;11.014;2022-10-29T04:29:38;3.10;;;0.60;;
62863;SDS011;48954;59.950;11.014;2022-10-29T04:32:04;3.80;;;0.90;;
62863;SDS011;48954;59.950;11.014;2022-10-29T04:34:30;3.20;;;1.00;;
62863;SDS011;48954;59.950;11.014;2022-10-29T04:36:55;0.90;;;0.70;;
62863;SDS011;48954;59.950;11.014;2022-10-29T04:39:21;1.30;;;0.60;;
62863;SDS011;48954;59.950;11.014;2022-10-29T04:41:47;3.50;;;1.40;;
62863;SDS011;48954;59.950;11.014;2022-10-29T04:44:13;10.10;;;3.00;;
62863;SDS011;48954;59.950;11.014;2022-10-29T04:46:38;6.40;;;2.70;;
62863;SDS011;48954;59.950;11.014;2022-10-29T04:49:07;2.90;;;1.00;;
62863;SDS011;48954;59.950;11.014;2022-10-29T04:51:35;3.20;;;0.90;;
62863;SDS011;48954;59.950;11.014;2022-10-29T04:54:05;1.30;;;0.60;;
62863;SDS011;48954;59.950;11.014;2022-10-29T04:56:48;2.80;;;0.60;;
62863;SDS011;48954;59.950;11.014;2022-10-29T04:59:15;2.80;;;0.60;;
62863;SDS011;48954;59.950;11.014;2022-10-29T05:01:46;1.10;;;0.70;;
62863;SDS011;48954;59.950;11.014;2022-10-29T05:04:12;4.80;;;0.60;;
62863;SDS011;48954;59.950;11.014;2022-10-29T05:06:38;3.80;;;0.70;;
62863;SDS011;48954;59.950;11.014;2022-10-29T05:09:04;1.90;;;0.60;;
62863;SDS011;48954;59.950;11.014;2022-10-29T05:11:30;1.70;;;0.40;;
62863;SDS011;48954;59.950;11.014;2022-10-29T05:13:57;4.10;;;1.40;;
62863;SDS011;48954;59.950;11.014;2022-10-29T05:16:30;2.60;;;0.60;;
62863;SDS011;48954;59.950;11.014;2022-10-29T05:18:56;2.20;;;0.70;;
62863;SDS011;48954;59.950;11.014;2022-10-29T05:21:27;1.80;;;0.50;;
62863;SDS011;48954;59.950;11.014;2022-10-29T05:23:58;2.40;;;0.60;;
62863;SDS011;48954;59.950;11.014;2022-10-29T05:26:25;1.70;;;0.70;;
62863;SDS011;48954;59.950;11.014;2022-10-29T05:28:52;1.20;;;0.60;;
62863;SDS011;48954;59.950;11.014;2022-10-29T05:31:18;2.30;;;0.70;;
62863;SDS011;48954;59.950;11.014;2022-10-29T05:33:44;0.70;;;0.50;;
62863;SDS011;48954;59.950;11.014;2022-10-29T05:36:12;2.80;;;0.70;;
62863;SDS011;48954;59.950;11.014;2022-10-29T05:38:38;2.80;;;0.60;;
62863;SDS011;48954;59.950;11.014;2022-10-29T05:41:13;1.20;;;0.50;;
62863;SDS011;48954;59.950;11.014;2022-10-29T05:43:39;1.80;;;0.50;;
62863;SDS011;48954;59.950;11.014;2022-10-29T05:46:05;1.30;;;0.40;;
62863;SDS011;48954;59.950;11.014;2022-10-29T05:48:34;1.80;;;0.70;;
62863;SDS011;48954;59.950;11.014;2022-10-29T05:51:00;3.30;;;0.60;;
62863;SDS011;48954;59.950;11.014;2022-10-29T05:53:27;2.20;;;0.80;;
62863;SDS011;48954;59.950;11.014;2022-10-29T05:55:54;1.60;;;0.90;;
62863;SDS011;48954;59.950;11.014;2022-10-29T05:58:21;3.60;;;1.00;;
62863;SDS011;48954;59.950;11.014;2022-10-29T06:00:49;4.10;;;0.90;;
62863;SDS011;48954;59.950;11.014;2022-10-29T06:03:19;3.40;;;1.30;;
62863;SDS011;48954;59.950;11.014;2022-10-29T06:05:57;3.90;;;1.30;;
62863;SDS011;48954;59.950;11.014;2022-10-29T06:08:39;2.40;;;1.10;;
62863;SDS011;48954;59.950;11.014;2022-10-29T06:11:05;2.90;;;1.00;;
62863;SDS011;48954;59.950;11.014;2022-10-29T06:13:33;1.60;;;0.80;;
62863;SDS011;48954;59.950;11.014;2022-10-29T06:15:59;1.50;;;0.70;;
62863;SDS011;48954;59.950;11.014;2022-10-29T06:18:25;2.10;;;0.70;;
62863;SDS011;48954;59.950;11.014;2022-10-29T06:21:28;3.20;;;0.90;;
62863;SDS011;48954;59.950;11.014;2022-10-29T06:23:57;4.00;;;1.00;;
62863;SDS011;48954;59.950;11.014;2022-10-29T06:26:23;2.60;;;0.90;;
62863;SDS011;48954;59.950;11.014;2022-10-29T06:29:26;3.00;;;0.80;;
62863;SDS011;48954;59.950;11.014;2022-10-29T06:32:07;2.40;;;0.60;;
62863;SDS011;48954;59.950;11.014;2022-10-29T06:34:59;2.60;;;0.60;;
62863;SDS011;48954;59.950;11.014;2022-10-29T06:37:37;1.90;;;0.60;;
62863;SDS011;48954;59.950;11.014;2022-10-29T06:40:43;3.00;;;0.70;;
62863;SDS011;48954;59.950;11.014;2022-10-29T06:43:19;1.90;;;0.70;;
62863;SDS011;48954;59.950;11.014;2022-10-29T06:45:59;5.30;;;1.00;;
62863;SDS011;48954;59.950;11.014;2022-10-29T06:48:26;2.20;;;0.70;;
62863;SDS011;48954;59.950;11.014;2022-10-29T06:51:07;1.60;;;0.80;;
62863;SDS011;48954;59.950;11.014;2022-10-29T06:53:47;3.00;;;0.80;;
62863;SDS011;48954;59.950;11.014;2022-10-29T06:56:19;1.80;;;0.70;;
62863;SDS011;48954;59.950;11.014;2022-10-29T06:59:09;1.80;;;0.60;;
62863;SDS011;48954;59.950;11.014;2022-10-29T07:01:41;2.30;;;0.50;;
62863;SDS011;48954;59.950;11.014;2022-10-29T07:05:06;2.60;;;0.70;;
62863;SDS011;48954;59.950;11.014;2022-10-29T07:07:53;2.70;;;0.70;;
62863;SDS011;48954;59.950;11.014;2022-10-29T08:53:02;5.50;;;1.10;;
62863;SDS011;48954;59.950;11.014;2022-10-29T08:55:48;2.50;;;0.70;;
62863;SDS011;48954;59.950;11.014;2022-10-29T09:01:28;6.30;;;1.30;;
62863;SDS011;48954;59.950;11.014;2022-10-29T09:04:26;2.90;;;0.90;;
62863;SDS011;48954;59.950;11.014;2022-10-29T09:07:17;5.30;;;1.00;;
62863;SDS011;48954;59.950;11.014;2022-10-29T09:09:58;4.50;;;0.90;;
62863;SDS011;48954;59.950;11.014;2022-10-29T09:13:10;3.70;;;1.10;;
62863;SDS011;48954;59.950;11.014;2022-10-29T09:25:25;5.90;;;3.10;;
62863;SDS011;48954;59.950;11.014;2022-10-29T09:34:18;2.40;;;1.00;;
62863;SDS011;48954;59.950;11.014;2022-10-29T09:37:13;3.10;;;1.10;;
62863;SDS011;48954;59.950;11.014;2022-10-29T09:39:50;3.80;;;1.00;;
62863;SDS011;48954;59.950;11.014;2022-10-29T09:42:43;3.30;;;0.70;;
62863;SDS011;48954;59.950;11.014;2022-10-29T09:46:27;4.50;;;0.90;;
62863;SDS011;48954;59.950;11.014;2022-10-29T09:52:40;3.30;;;0.90;;
62863;SDS011;48954;59.950;11.014;2022-10-29T09:55:16;3.10;;;0.90;;
62863;SDS011;48954;59.950;11.014;2022-10-29T09:57:49;3.30;;;0.90;;
62863;SDS011;48954;59.950;11.014;2022-10-29T10:00:30;2.50;;;1.10;;
62863;SDS011;48954;59.950;11.014;2022-10-29T10:03:13;1.60;;;0.80;;
62863;SDS011;48954;59.950;11.014;2022-10-29T10:11:45;5.00;;;1.10;;
62863;SDS011;48954;59.950;11.014;2022-10-29T10:14:29;2.20;;;0.90;;
62863;SDS011;48954;59.950;11.014;2022-10-29T10:17:10;3.10;;;0.90;;
62863;SDS011;48954;59.950;11.014;2022-10-29T10:19:52;4.20;;;0.90;;
62863;SDS011;48954;59.950;11.014;2022-10-29T10:22:34;2.40;;;0.70;;
62863;SDS011;48954;59.950;11.014;2022-10-29T10:25:30;3.70;;;1.10;;
62863;SDS011;48954;59.950;11.014;2022-10-29T10:28:26;3.20;;;0.90;;
62863;SDS011;48954;59.950;11.014;2022-10-29T10:31:13;4.10;;;0.90;;
62863;SDS011;48954;59.950;11.014;2022-10-29T10:33:59;4.20;;;0.70;;
62863;SDS011;48954;59.950;11.014;2022-10-29T10:37:04;4.90;;;1.00;;
62863;SDS011;48954;59.950;11.014;2022-10-29T10:42:45;4.50;;;0.80;;
62863;SDS011;48954;59.950;11.014;2022-10-29T10:45:35;3.60;;;0.70;;
62863;SDS011;48954;59.950;11.014;2022-10-29T10:48:31;1.80;;;0.80;;
62863;SDS011;48954;59.950;11.014;2022-10-29T10:53:52;2.00;;;0.70;;
62863;SDS011;48954;59.950;11.014;2022-10-29T10:56:20;4.30;;;1.00;;
62863;SDS011;48954;59.950;11.014;2022-10-29T10:59:06;2.70;;;0.80;;
62863;SDS011;48954;59.950;11.014;2022-10-29T11:01:46;1.90;;;0.80;;
62863;SDS011;48954;59.950;11.014;2022-10-29T11:04:16;4.40;;;0.80;;
62863;SDS011;48954;59.950;11.014;2022-10-29T11:07:04;4.50;;;1.00;;
62863;SDS011;48954;59.950;11.014;2022-10-29T11:09:48;2.80;;;0.70;;
62863;SDS011;48954;59.950;11.014;2022-10-29T11:16:45;2.00;;;0.60;;
62863;SDS011;48954;59.950;11.014;2022-10-29T11:19:47;3.40;;;0.90;;
62863;SDS011;48954;59.950;11.014;2022-10-29T11:26:33;3.10;;;1.70;;
62863;SDS011;48954;59.950;11.014;2022-10-29T11:38:20;3.30;;;0.90;;
62863;SDS011;48954;59.950;11.014;2022-10-29T11:41:22;2.70;;;0.60;;
62863;SDS011;48954;59.950;11.014;2022-10-29T11:43:56;4.60;;;1.10;;
62863;SDS011;48954;59.950;11.014;2022-10-29T11:46:38;4.60;;;1.10;;
62863;SDS011;48954;59.950;11.014;2022-10-29T11:57:38;9.30;;;3.50;;
62863;SDS011;48954;59.950;11.014;2022-10-29T12:00:24;4.00;;;2.00;;
62863;SDS011;48954;59.950;11.014;2022-10-29T12:03:11;4.80;;;1.70;;
62863;SDS011;48954;59.950;11.014;2022-10-29T12:12:35;2.10;;;0.80;;
62863;SDS011;48954;59.950;11.014;2022-10-29T12:15:20;3.50;;;0.70;;
62863;SDS011;48954;59.950;11.014;2022-10-29T12:21:42;2.10;;;0.90;;
62863;SDS011;48954;59.950;11.014;2022-10-29T12:32:30;4.90;;;2.00;;
62863;SDS011;48954;59.950;11.014;2022-10-29T12:35:39;2.40;;;1.00;;
62863;SDS011;48954;59.950;11.014;2022-10-29T12:41:16;3.20;;;1.20;;
62863;SDS011;48954;59.950;11.014;2022-10-29T12:44:16;2.40;;;0.90;;
62863;SDS011;48954;59.950;11.014;2022-10-29T12:52:23;5.20;;;1.10;;
62863;SDS011;48954;59.950;11.014;2022-10-29T12:55:04;5.20;;;1.20;;
62863;SDS011;48954;59.950;11.014;2022-10-29T12:57:37;3.90;;;1.00;;
62863;SDS011;48954;59.950;11.014;2022-10-29T13:02:54;3.80;;;1.10;;
62863;SDS011;48954;59.950;11.014;2022-10-29T13:10:46;3.30;;;1.30;;
62863;SDS011;48954;59.950;11.014;2022-10-29T13:15:42;5.90;;;1.20;;
62863;SDS011;48954;59.950;11.014;2022-10-29T13:18:22;4.20;;;1.10;;
62863;SDS011;48954;59.950;11.014;2022-10-29T13:20:54;2.40;;;1.00;;
62863;SDS011;48954;59.950;11.014;2022-10-29T13:23:38;4.50;;;1.20;;
62863;SDS011;48954;59.950;11.014;2022-10-29T13:32:33;2.70;;;0.90;;
62863;SDS011;48954;59.950;11.014;2022-10-29T13:45:46;6.00;;;2.80;;
62863;SDS011;48954;59.950;11.014;2022-10-29T13:51:07;4.10;;;1.90;;
62863;SDS011;48954;59.950;11.014;2022-10-29T13:53:46;4.40;;;1.80;;
62863;SDS011;48954;59.950;11.014;2022-10-29T13:59:44;4.70;;;1.60;;
62863;SDS011;48954;59.950;11.014;2022-10-29T14:02:54;4.20;;;1.80;;
62863;SDS011;48954;59.950;11.014;2022-10-29T14:05:30;5.40;;;2.00;;
62863;SDS011;48954;59.950;11.014;2022-10-29T14:08:14;4.90;;;2.10;;
62863;SDS011;48954;59.950;11.014;2022-10-29T14:10:56;5.20;;;2.40;;
62863;SDS011;48954;59.950;11.014;2022-10-29T14:16:37;7.50;;;4.70;;
62863;SDS011;48954;59.950;11.014;2022-10-29T14:19:17;8.00;;;3.20;;
62863;SDS011;48954;59.950;11.014;2022-10-29T14:21:48;6.30;;;3.70;;
62863;SDS011;48954;59.950;11.014;2022-10-29T14:24:15;7.70;;;3.40;;
62863;SDS011;48954;59.950;11.014;2022-10-29T14:26:46;2.80;;;1.50;;
62863;SDS011;48954;59.950;11.014;2022-10-29T14:32:04;7.00;;;3.40;;
62863;SDS011;48954;59.950;11.014;2022-10-29T14:34:38;6.20;;;2.80;;
62863;SDS011;48954;59.950;11.014;2022-10-29T14:37:14;3.30;;;1.60;;
62863;SDS011;48954;59.950;11.014;2022-10-29T14:39:51;3.50;;;1.60;;
62863;SDS011;48954;59.950;11.014;2022-10-29T14:42:32;3.50;;;2.00;;
62863;SDS011;48954;59.950;11.014;2022-10-29T14:45:23;5.60;;;2.10;;
62863;SDS011;48954;59.950;11.014;2022-10-29T14:47:56;10.30;;;6.10;;
62863;SDS011;48954;59.950;11.014;2022-10-29T14:50:26;8.60;;;4.10;;
62863;SDS011;48954;59.950;11.014;2022-10-29T14:53:02;11.10;;;6.50;;
62863;SDS011;48954;59.950;11.014;2022-10-29T14:55:35;4.50;;;2.30;;
62863;SDS011;48954;59.950;11.014;2022-10-29T14:58:04;5.10;;;1.50;;
62863;SDS011;48954;59.950;11.014;2022-10-29T15:00:49;4.30;;;1.40;;
62863;SDS011;48954;59.950;11.014;2022-10-29T15:03:23;3.80;;;1.30;;
62863;SDS011;48954;59.950;11.014;2022-10-29T15:06:08;3.90;;;1.00;;
62863;SDS011;48954;59.950;11.014;2022-10-29T15:08:42;2.90;;;1.40;;
62863;SDS011;48954;59.950;11.014;2022-10-29T15:14:01;3.50;;;0.90;;
62863;SDS011;48954;59.950;11.014;2022-10-29T15:16:30;4.60;;;1.60;;
62863;SDS011;48954;59.950;11.014;2022-10-29T15:18:58;2.40;;;1.40;;
62863;SDS011;48954;59.950;11.014;2022-10-29T15:21:26;4.90;;;1.20;;
62863;SDS011;48954;59.950;11.014;2022-10-29T15:24:00;2.40;;;1.40;;
62863;SDS011;48954;59.950;11.014;2022-10-29T15:26:32;5.00;;;1.30;;
62863;SDS011;48954;59.950;11.014;2022-10-29T15:29:05;3.20;;;1.20;;
62863;SDS011;48954;59.950;11.014;2022-10-29T15:31:42;4.00;;;1.20;;
62863;SDS011;48954;59.950;11.014;2022-10-29T15:34:17;4.00;;;1.40;;
62863;SDS011;48954;59.950;11.014;2022-10-29T15:36:48;7.30;;;1.80;;
62863;SDS011;48954;59.950;11.014;2022-10-29T15:42:25;4.60;;;2.50;;
62863;SDS011;48954;59.950;11.014;2022-10-29T15:47:33;7.10;;;3.50;;
62863;SDS011;48954;59.950;11.014;2022-10-29T15:50:02;3.80;;;2.30;;
62863;SDS011;48954;59.950;11.014;2022-10-29T15:52:40;5.50;;;2.10;;
62863;SDS011;48954;59.950;11.014;2022-10-29T15:55:12;5.10;;;2.40;;
62863;SDS011;48954;59.950;11.014;2022-10-29T15:57:44;6.00;;;2.80;;
62863;SDS011;48954;59.950;11.014;2022-10-29T16:00:13;6.30;;;3.00;;
62863;SDS011;48954;59.950;11.014;2022-10-29T16:02:41;6.80;;;2.50;;
62863;SDS011;48954;59.950;11.014;2022-10-29T16:05:10;4.80;;;2.30;;
62863;SDS011;48954;59.950;11.014;2022-10-29T16:07:38;5.60;;;2.60;;
62863;SDS011;48954;59.950;11.014;2022-10-29T16:10:05;8.30;;;3.60;;
62863;SDS011;48954;59.950;11.014;2022-10-29T16:12:32;11.70;;;3.40;;
62863;SDS011;48954;59.950;11.014;2022-10-29T16:14:59;4.20;;;2.00;;
62863;SDS011;48954;59.950;11.014;2022-10-29T16:17:26;4.60;;;1.70;;
62863;SDS011;48954;59.950;11.014;2022-10-29T16:19:57;4.60;;;1.50;;
62863;SDS011;48954;59.950;11.014;2022-10-29T16:22:27;3.60;;;1.70;;
62863;SDS011;48954;59.950;11.014;2022-10-29T16:24:54;4.90;;;1.70;;
62863;SDS011;48954;59.950;11.014;2022-10-29T16:27:24;4.60;;;2.00;;
62863;SDS011;48954;59.950;11.014;2022-10-29T16:29:50;5.20;;;2.60;;
62863;SDS011;48954;59.950;11.014;2022-10-29T16:32:17;7.40;;;3.50;;
62863;SDS011;48954;59.950;11.014;2022-10-29T16:34:46;5.30;;;2.10;;
62863;SDS011;48954;59.950;11.014;2022-10-29T16:37:17;5.10;;;2.10;;
62863;SDS011;48954;59.950;11.014;2022-10-29T16:39:44;5.30;;;1.70;;
62863;SDS011;48954;59.950;11.014;2022-10-29T16:44:54;4.60;;;2.10;;
62863;SDS011;48954;59.950;11.014;2022-10-29T16:47:21;5.50;;;1.70;;
62863;SDS011;48954;59.950;11.014;2022-10-29T16:49:50;4.30;;;1.80;;
62863;SDS011;48954;59.950;11.014;2022-10-29T16:52:31;8.00;;;4.10;;
62863;SDS011;48954;59.950;11.014;2022-10-29T16:54:57;5.10;;;2.30;;
62863;SDS011;48954;59.950;11.014;2022-10-29T16:57:24;8.00;;;4.20;;
62863;SDS011;48954;59.950;11.014;2022-10-29T16:59:52;9.50;;;3.80;;
62863;SDS011;48954;59.950;11.014;2022-10-29T17:02:19;5.60;;;3.00;;
62863;SDS011;48954;59.950;11.014;2022-10-29T17:04:47;5.30;;;2.20;;
62863;SDS011;48954;59.950;11.014;2022-10-29T17:07:31;5.60;;;2.40;;
62863;SDS011;48954;59.950;11.014;2022-10-29T17:09:57;5.10;;;2.10;;
62863;SDS011;48954;59.950;11.014;2022-10-29T17:12:24;5.90;;;2.30;;
62863;SDS011;48954;59.950;11.014;2022-10-29T17:14:55;7.00;;;3.00;;
62863;SDS011;48954;59.950;11.014;2022-10-29T17:17:22;6.40;;;2.80;;
62863;SDS011;48954;59.950;11.014;2022-10-29T17:19:49;8.90;;;3.80;;
62863;SDS011;48954;59.950;11.014;2022-10-29T17:22:15;9.20;;;3.60;;
62863;SDS011;48954;59.950;11.014;2022-10-29T17:24:44;8.10;;;4.30;;
62863;SDS011;48954;59.950;11.014;2022-10-29T17:27:11;8.20;;;3.40;;
62863;SDS011;48954;59.950;11.014;2022-10-29T17:29:39;7.50;;;3.60;;
62863;SDS011;48954;59.950;11.014;2022-10-29T17:32:07;8.90;;;4.30;;
62863;SDS011;48954;59.950;11.014;2022-10-29T17:34:46;8.40;;;4.20;;
62863;SDS011;48954;59.950;11.014;2022-10-29T17:37:13;12.10;;;4.10;;
62863;SDS011;48954;59.950;11.014;2022-10-29T17:39:39;13.10;;;5.60;;
62863;SDS011;48954;59.950;11.014;2022-10-29T17:42:06;11.80;;;4.40;;
62863;SDS011;48954;59.950;11.014;2022-10-29T17:44:32;12.20;;;4.70;;
62863;SDS011;48954;59.950;11.014;2022-10-29T17:47:02;9.30;;;4.70;;
62863;SDS011;48954;59.950;11.014;2022-10-29T17:49:30;8.90;;;3.40;;
62863;SDS011;48954;59.950;11.014;2022-10-29T17:52:21;11.10;;;4.30;;
62863;SDS011;48954;59.950;11.014;2022-10-29T17:54:46;8.70;;;3.60;;
62863;SDS011;48954;59.950;11.014;2022-10-29T17:57:13;16.20;;;7.50;;
62863;SDS011;48954;59.950;11.014;2022-10-29T17:59:42;13.40;;;5.40;;
62863;SDS011;48954;59.950;11.014;2022-10-29T18:02:10;9.80;;;4.70;;
62863;SDS011;48954;59.950;11.014;2022-10-29T18:04:37;7.50;;;3.20;;
62863;SDS011;48954;59.950;11.014;2022-10-29T18:07:03;8.10;;;3.30;;
62863;SDS011;48954;59.950;11.014;2022-10-29T18:09:30;9.20;;;3.30;;
62863;SDS011;48954;59.950;11.014;2022-10-29T18:11:56;6.90;;;2.70;;
62863;SDS011;48954;59.950;11.014;2022-10-29T18:14:22;6.00;;;3.00;;
62863;SDS011;48954;59.950;11.014;2022-10-29T18:16:49;12.60;;;3.90;;
62863;SDS011;48954;59.950;11.014;2022-10-29T18:19:15;17.60;;;5.50;;
62863;SDS011;48954;59.950;11.014;2022-10-29T18:21:41;13.00;;;5.40;;
62863;SDS011;48954;59.950;11.014;2022-10-29T18:24:08;16.90;;;5.60;;
62863;SDS011;48954;59.950;11.014;2022-10-29T18:26:35;13.50;;;5.80;;
62863;SDS011;48954;59.950;11.014;2022-10-29T18:29:04;11.50;;;4.60;;
62863;SDS011;48954;59.950;11.014;2022-10-29T18:31:32;14.40;;;6.40;;
62863;SDS011;48954;59.950;11.014;2022-10-29T18:34:00;19.00;;;8.30;;
62863;SDS011;48954;59.950;11.014;2022-10-29T18:36:28;15.10;;;7.70;;
62863;SDS011;48954;59.950;11.014;2022-10-29T18:38:55;15.20;;;6.70;;
62863;SDS011;48954;59.950;11.014;2022-10-29T18:41:34;18.70;;;9.10;;
62863;SDS011;48954;59.950;11.014;2022-10-29T18:44:04;21.50;;;10.00;;
62863;SDS011;48954;59.950;11.014;2022-10-29T18:46:30;21.80;;;9.90;;
62863;SDS011;48954;59.950;11.014;2022-10-29T18:48:56;19.10;;;7.70;;
62863;SDS011;48954;59.950;11.014;2022-10-29T18:51:28;13.70;;;5.90;;
62863;SDS011;48954;59.950;11.014;2022-10-29T18:53:56;16.80;;;5.70;;
62863;SDS011;48954;59.950;11.014;2022-10-29T18:56:25;14.40;;;5.80;;
62863;SDS011;48954;59.950;11.014;2022-10-29T18:58:52;12.80;;;5.40;;
62863;SDS011;48954;59.950;11.014;2022-10-29T19:01:20;11.50;;;4.80;;
62863;SDS011;48954;59.950;11.014;2022-10-29T19:03:52;10.70;;;4.80;;
62863;SDS011;48954;59.950;11.014;2022-10-29T19:06:23;15.30;;;6.00;;
62863;SDS011;48954;59.950;11.014;2022-10-29T19:08:51;10.70;;;4.50;;
62863;SDS011;48954;59.950;11.014;2022-10-29T19:11:19;20.00;;;7.90;;
62863;SDS011;48954;59.950;11.014;2022-10-29T19:13:50;19.80;;;8.70;;
62863;SDS011;48954;59.950;11.014;2022-10-29T19:16:23;16.10;;;7.50;;
62863;SDS011;48954;59.950;11.014;2022-10-29T19:18:55;14.60;;;6.00;;
62863;SDS011;48954;59.950;11.014;2022-10-29T19:21:25;12.30;;;4.90;;
62863;SDS011;48954;59.950;11.014;2022-10-29T19:23:54;10.20;;;4.80;;
62863;SDS011;48954;59.950;11.014;2022-10-29T19:26:25;9.50;;;4.90;;
62863;SDS011;48954;59.950;11.014;2022-10-29T19:28:53;11.40;;;6.40;;
62863;SDS011;48954;59.950;11.014;2022-10-29T19:31:27;11.40;;;6.40;;
62863;SDS011;48954;59.950;11.014;2022-10-29T19:33:56;7.50;;;4.00;;
62863;SDS011;48954;59.950;11.014;2022-10-29T19:36:26;6.20;;;2.80;;
62863;SDS011;48954;59.950;11.014;2022-10-29T19:38:55;5.70;;;2.80;;
62863;SDS011;48954;59.950;11.014;2022-10-29T19:41:21;5.70;;;3.90;;